Time;durP1;ratioP1;P1;durP2;ratioP2;P2;SDS_P1;SDS_P2;PMS_P1;PMS_P2;Temp;Humidity;BMP_temperature;BMP_pressure;BME280_temperature;BME280_humidity;BME280_pressure;Samples;Min_cycle;Max_cycle;Signal;HPM_P1;HPM_P2
2021/12/16 00:09:31;;;;;;;14.97;9.90;;;;;;;3.36;100.00;97898.59;4989573;28;103155;-62
2021/12/16 00:31:48;;;;;;;14.67;9.23;;;;;;;3.23;100.00;97911.44;4988998;28;105334;-62
2021/12/16 00:34:17;;;;;;;13.00;9.23;;;;;;;3.17;100.00;97897.16;4991148;28;101829;-62
2021/12/16 00:36:47;;;;;;;14.30;9.67;;;;;;;3.13;100.00;97897.66;4989412;28;105621;-62
2021/12/16 00:39:22;;;;;;;12.77;9.53;;;;;;;3.04;100.00;97891.59;4988892;28;105072;-62
2021/12/16 00:41:55;;;;;;;12.50;9.60;;;;;;;2.98;100.00;97891.44;4989215;28;101944;-62
2021/12/16 00:44:47;;;;;;;15.77;11.20;;;;;;;2.93;100.00;97891.13;4992392;28;105685;-62
2021/12/16 00:47:29;;;;;;;14.43;9.67;;;;;;;2.83;100.00;97901.81;4988219;28;102069;-62
2021/12/16 00:50:05;;;;;;;14.20;9.73;;;;;;;2.87;100.00;97894.41;4989056;28;105762;-62
2021/12/16 00:55:32;;;;;;;13.63;9.70;;;;;;;2.90;100.00;97897.53;4989143;28;101886;-62
2021/12/16 00:57:59;;;;;;;14.23;9.47;;;;;;;2.95;100.00;97891.78;4988985;28;105548;-62
2021/12/16 01:00:30;;;;;;;13.40;9.93;;;;;;;2.86;100.00;97890.16;4988442;28;105059;-62
2021/12/16 01:03:09;;;;;;;14.20;10.17;;;;;;;2.84;100.00;97897.38;4989057;28;101827;-62
2021/12/16 01:09:03;;;;;;;15.60;10.13;;;;;;;2.79;100.00;97891.81;4990840;28;103755;-63
2021/12/16 01:34:50;;;;;;;14.30;9.60;;;;;;;3.02;100.00;97900.63;4992502;28;101743;-63
2021/12/16 01:40:18;;;;;;;14.73;9.60;;;;;;;3.05;100.00;97911.63;4969874;28;101944;-63
2021/12/16 01:51:15;;;;;;;15.67;10.20;;;;;;;3.04;100.00;97906.53;4972966;28;102520;-63
2021/12/16 01:54:14;;;;;;;14.43;10.00;;;;;;;3.10;100.00;97905.88;4988115;28;102596;-63
2021/12/16 01:56:46;;;;;;;12.73;9.37;;;;;;;2.98;100.00;97899.31;4987148;28;101966;-63
2021/12/16 01:59:19;;;;;;;14.13;9.83;;;;;;;2.86;100.00;97908.53;4974234;28;106471;-63
2021/12/16 02:02:01;;;;;;;15.80;9.87;;;;;;;2.93;100.00;97905.09;4988193;28;101793;-63
2021/12/16 02:04:39;;;;;;;14.50;10.10;;;;;;;2.94;100.00;97903.25;4989228;28;105066;-63
2021/12/16 02:07:22;;;;;;;14.07;9.23;;;;;;;2.83;100.00;97911.47;4990123;28;105455;-63
2021/12/16 02:09:49;;;;;;;14.33;9.77;;;;;;;2.84;100.00;97900.00;4991746;28;101786;-63
2021/12/16 02:12:38;;;;;;;16.20;9.43;;;;;;;2.80;100.00;97898.69;4991670;28;104925;-63
2021/12/16 02:29:10;;;;;;;16.67;10.50;;;;;;;2.77;100.00;97885.88;4991816;28;102690;-63
2021/12/16 02:31:50;;;;;;;15.63;10.33;;;;;;;2.78;100.00;97877.03;4990221;28;102063;-63
2021/12/16 02:34:42;;;;;;;14.13;9.30;;;;;;;2.74;100.00;97880.97;4990451;28;105081;-63
2021/12/16 02:37:17;;;;;;;14.80;9.70;;;;;;;2.83;100.00;97874.69;4990495;28;105692;-63
2021/12/16 02:39:45;;;;;;;13.23;9.67;;;;;;;2.80;100.00;97882.94;4991042;28;101893;-63
2021/12/16 02:42:17;;;;;;;14.63;9.67;;;;;;;2.83;100.00;97885.22;4991362;28;105676;-63
2021/12/16 02:50:13;;;;;;;15.77;10.00;;;;;;;2.72;100.00;97890.81;4990490;28;105720;-63
2021/12/16 02:52:42;;;;;;;14.50;9.63;;;;;;;2.85;100.00;97883.25;4989932;28;101910;-63
2021/12/16 02:55:14;;;;;;;14.00;9.70;;;;;;;2.78;100.00;97888.34;4991302;28;105571;-63
2021/12/16 02:57:47;;;;;;;14.60;9.77;;;;;;;2.79;100.00;97894.44;4991933;28;102593;-63
2021/12/16 03:00:16;;;;;;;16.73;10.50;;;;;;;2.74;100.00;97908.03;4990910;28;101715;-63
2021/12/16 03:02:49;;;;;;;14.10;9.37;;;;;;;2.67;100.00;97907.06;4990081;28;105471;-63
2021/12/16 03:05:20;;;;;;;13.40;9.20;;;;;;;2.65;100.00;97909.03;4990350;28;105266;-63
2021/12/16 03:07:49;;;;;;;13.40;9.47;;;;;;;2.59;100.00;97904.44;4995632;28;101782;-63
2021/12/16 03:13:01;;;;;;;14.90;9.73;;;;;;;2.58;100.00;97913.28;4991984;28;101948;-63
2021/12/16 03:15:42;;;;;;;15.47;10.03;;;;;;;2.61;100.00;97906.88;4992246;28;102739;-63
2021/12/16 03:18:21;;;;;;;13.63;9.73;;;;;;;2.57;100.00;97898.53;4989187;28;104942;-63
2021/12/16 03:20:52;;;;;;;15.07;9.57;;;;;;;2.50;100.00;97902.78;4990732;28;101859;-63
2021/12/16 03:23:33;;;;;;;17.00;9.63;;;;;;;2.51;100.00;97901.00;4990721;28;104952;-63
2021/12/16 03:26:36;;;;;;;13.07;9.13;;;;;;;2.51;100.00;97908.88;4990053;28;105455;-63
2021/12/16 03:29:15;;;;;;;13.07;9.30;;;;;;;2.49;100.00;97905.56;4989743;28;102219;-63
2021/12/16 03:35:01;;;;;;;16.10;10.60;;;;;;;2.63;100.00;97910.19;4947098;28;102122;-63
2021/12/16 03:37:30;;;;;;;14.97;10.13;;;;;;;2.49;100.00;97914.28;4989313;28;104772;-63
2021/12/16 03:40:01;;;;;;;15.40;9.50;;;;;;;2.51;100.00;97914.13;4988491;28;105649;-63
2021/12/16 03:42:33;;;;;;;16.83;10.70;;;;;;;2.51;100.00;97922.00;4990308;28;101949;-63
2021/12/16 03:45:08;;;;;;;17.27;10.53;;;;;;;2.61;100.00;97917.41;4989353;28;103604;-63
2021/12/16 03:47:41;;;;;;;17.03;10.60;;;;;;;2.61;100.00;97917.41;4988413;28;106266;-63
2021/12/16 03:50:12;;;;;;;17.67;10.63;;;;;;;2.54;100.00;97913.78;4989277;28;102162;-63
2021/12/16 03:52:40;;;;;;;16.40;10.27;;;;;;;2.59;100.00;97919.38;4989189;28;105052;-63
2021/12/16 03:55:10;;;;;;;15.60;9.80;;;;;;;2.65;100.00;97918.72;4992150;28;105400;-62
2021/12/16 03:57:40;;;;;;;15.00;10.03;;;;;;;2.54;100.00;97921.66;4989917;28;105122;-63
2021/12/16 04:00:13;;;;;;;16.30;10.50;;;;;;;2.57;100.00;97924.78;4988385;28;105027;-63
2021/12/16 04:02:55;;;;;;;16.73;10.53;;;;;;;2.67;100.00;97933.31;4988940;28;101876;-63
2021/12/16 04:05:28;;;;;;;16.03;10.23;;;;;;;2.58;100.00;97928.25;4989033;28;105300;-63
2021/12/16 04:07:56;;;;;;;18.03;10.77;;;;;;;2.72;100.00;97940.69;4988505;28;104394;-63
2021/12/16 04:10:34;;;;;;;16.27;9.63;;;;;;;2.63;100.00;97933.84;4988770;28;101830;-63
2021/12/16 04:13:06;;;;;;;15.97;10.50;;;;;;;2.64;100.00;97938.09;4989896;28;104978;-63
2021/12/16 04:15:34;;;;;;;16.33;10.73;;;;;;;2.64;100.00;97943.34;4988363;28;105291;-63
2021/12/16 04:18:03;;;;;;;16.93;10.40;;;;;;;2.57;100.00;97955.50;4991987;28;101910;-63
2021/12/16 04:20:29;;;;;;;17.87;11.20;;;;;;;2.57;100.00;97958.91;4988307;28;105599;-63
2021/12/16 04:22:58;;;;;;;18.67;11.13;;;;;;;2.59;100.00;97961.38;4988633;28;101866;-63
2021/12/16 04:25:30;;;;;;;19.10;11.53;;;;;;;2.62;100.00;97956.63;4988840;28;104896;-63
2021/12/16 04:28:02;;;;;;;17.57;10.90;;;;;;;2.70;100.00;97958.44;4987101;28;105011;-63
2021/12/16 04:30:32;;;;;;;17.50;10.90;;;;;;;2.71;100.00;97965.34;4988339;28;101791;-63
2021/12/16 04:33:02;;;;;;;17.10;10.73;;;;;;;2.69;100.00;97975.19;4988354;28;105052;-63
2021/12/16 04:35:34;;;;;;;19.40;11.47;;;;;;;2.68;100.00;97976.19;4988123;28;105027;-63
2021/12/16 04:38:02;;;;;;;17.20;11.60;;;;;;;2.64;100.00;97966.97;4991889;28;101888;-63
2021/12/16 04:40:32;;;;;;;17.73;11.53;;;;;;;2.66;100.00;97970.25;4987899;28;104009;-63
2021/12/16 04:43:05;;;;;;;19.50;11.30;;;;;;;2.65;100.00;97968.63;4988487;28;101756;-63
2021/12/16 04:45:50;;;;;;;16.73;10.33;;;;;;;2.52;100.00;97970.91;4988380;28;105400;-63
2021/12/16 04:48:17;;;;;;;21.67;11.40;;;;;;;2.60;100.00;97970.91;4987717;28;105102;-63
2021/12/16 04:50:46;;;;;;;18.03;11.03;;;;;;;2.66;100.00;97975.50;4988247;28;102020;-63
2021/12/16 04:53:15;;;;;;;19.87;11.83;;;;;;;2.63;100.00;97978.47;4988321;28;105320;-63
2021/12/16 04:55:48;;;;;;;18.07;11.23;;;;;;;2.52;100.00;97978.78;4987858;28;105267;-63
2021/12/16 04:58:17;;;;;;;17.10;11.00;;;;;;;2.52;100.00;97981.41;4987977;28;101808;-63
2021/12/16 05:00:44;;;;;;;18.17;11.23;;;;;;;2.54;100.00;97988.16;4990945;28;105062;-63
2021/12/16 05:03:36;;;;;;;16.33;11.83;;;;;;;2.52;100.00;97978.78;4988311;28;101973;-63
2021/12/16 05:06:05;;;;;;;19.47;11.37;;;;;;;2.57;100.00;97990.44;4988149;28;104817;-63
2021/12/16 05:08:32;;;;;;;19.53;12.57;;;;;;;2.52;100.00;97991.91;4987598;28;105172;-63
2021/12/16 05:11:23;;;;;;;18.20;11.80;;;;;;;2.56;100.00;97995.88;4988934;28;101911;-63
2021/12/16 05:13:52;;;;;;;17.83;11.60;;;;;;;2.61;100.00;97998.81;4987945;28;104501;-63
2021/12/16 05:16:23;;;;;;;17.90;11.73;;;;;;;2.53;100.00;98004.88;4987354;28;105119;-63
2021/12/16 05:18:53;;;;;;;18.83;12.23;;;;;;;2.48;100.00;98007.19;4987965;28;101910;-63
2021/12/16 05:21:41;;;;;;;16.67;11.53;;;;;;;2.46;100.00;98003.88;4987366;28;105359;-63
2021/12/16 05:24:37;;;;;;;18.80;12.03;;;;;;;2.55;100.00;98013.41;4988394;28;103651;-63
2021/12/16 05:27:14;;;;;;;19.03;12.10;;;;;;;2.69;100.00;98012.78;4987636;28;104979;-63
2021/12/16 05:29:43;;;;;;;18.70;12.73;;;;;;;2.62;100.00;98014.41;4987380;28;105375;-63
2021/12/16 05:32:12;;;;;;;22.27;13.30;;;;;;;2.58;100.00;98023.59;4987466;28;102057;-62
2021/12/16 05:34:40;;;;;;;18.50;12.30;;;;;;;2.58;100.00;98018.34;4987573;28;104584;-62
2021/12/16 05:37:08;;;;;;;19.77;12.90;;;;;;;2.57;100.00;98018.50;4987084;28;105426;-62
2021/12/16 05:39:38;;;;;;;19.30;11.80;;;;;;;2.56;100.00;98030.00;4989168;28;102014;-62
2021/12/16 05:42:18;;;;;;;20.00;13.43;;;;;;;2.62;100.00;98027.53;5008201;28;105116;-62
2021/12/16 05:44:57;;;;;;;19.67;12.50;;;;;;;2.70;100.00;98032.81;4990903;28;105030;-62
2021/12/16 05:47:24;;;;;;;18.47;12.80;;;;;;;2.66;100.00;98030.66;4994992;28;101831;-63
2021/12/16 05:49:53;;;;;;;21.77;13.53;;;;;;;2.66;100.00;98035.91;5000401;28;105564;-63
2021/12/16 05:52:20;;;;;;;19.53;12.33;;;;;;;2.64;100.00;98033.47;5011186;28;101879;-63
2021/12/16 05:55:01;;;;;;;20.60;12.47;;;;;;;2.56;100.00;98035.25;5011009;28;105533;-62
2021/12/16 05:58:28;;;;;;;19.30;12.50;;;;;;;2.62;100.00;98039.88;5010488;28;105481;-63
2021/12/16 06:00:59;;;;;;;19.77;12.90;;;;;;;2.64;100.00;98048.41;5010953;28;101901;-63
2021/12/16 06:03:28;;;;;;;22.23;13.73;;;;;;;2.67;100.00;98053.34;5011047;28;105418;-63
2021/12/16 06:05:58;;;;;;;21.20;14.10;;;;;;;2.82;100.00;98062.22;5010409;28;105226;-64
2021/12/16 06:08:26;;;;;;;17.47;12.57;;;;;;;2.79;100.00;98058.09;5011005;28;102235;-63
2021/12/16 06:13:41;;;;;;;21.63;13.60;;;;;;;2.65;100.00;98060.53;5007227;28;102070;-63
2021/12/16 06:27:22;;;;;;;22.33;14.03;;;;;;;2.69;100.00;98054.00;4942951;28;106011;-62
2021/12/16 06:29:52;;;;;;;18.63;13.73;;;;;;;2.73;100.00;98068.47;5002527;28;102308;-62
2021/12/16 06:32:19;;;;;;;21.57;14.10;;;;;;;2.69;100.00;98067.94;4990660;28;104087;-62
2021/12/16 06:35:14;;;;;;;21.43;13.50;;;;;;;2.69;100.00;98067.13;4993828;28;105026;-62
2021/12/16 06:37:42;;;;;;;20.97;13.87;;;;;;;2.80;100.00;98074.69;4990595;28;105555;-63
2021/12/16 06:40:19;;;;;;;22.47;14.23;;;;;;;2.85;100.00;98080.28;4993861;28;105434;-63
2021/12/16 06:43:09;;;;;;;23.67;15.17;;;;;;;2.85;100.00;98082.94;5011227;28;101931;-63
2021/12/16 06:45:45;;;;;;;23.27;15.43;;;;;;;2.92;100.00;98083.91;5009648;28;104982;-62
2021/12/16 06:48:17;;;;;;;21.40;14.73;;;;;;;3.00;100.00;98095.25;5023672;28;105500;-62
2021/12/16 06:50:49;;;;;;;22.80;14.80;;;;;;;3.08;100.00;98086.56;5009631;28;101950;-62
2021/12/16 06:53:24;;;;;;;25.63;15.40;;;;;;;3.10;100.00;98095.94;5010270;28;104851;-63
2021/12/16 06:56:01;;;;;;;23.67;14.67;;;;;;;3.16;100.00;98094.47;5012743;28;105450;-62
2021/12/16 06:58:34;;;;;;;24.50;14.43;;;;;;;3.20;100.00;98098.41;5009904;28;104790;-63
2021/12/16 07:01:13;;;;;;;21.20;14.30;;;;;;;3.15;100.00;98087.56;5009310;28;105238;-62
2021/12/16 07:03:47;;;;;;;23.83;13.43;;;;;;;3.12;100.00;98088.69;5009959;28;102157;-62
2021/12/16 07:06:20;;;;;;;22.37;13.83;;;;;;;3.11;100.00;98078.38;5010093;28;104875;-62
2021/12/16 07:08:49;;;;;;;20.93;13.80;;;;;;;3.11;100.00;98083.63;4991328;28;103159;-62
2021/12/16 07:11:17;;;;;;;19.47;13.53;;;;;;;3.04;100.00;98088.69;4997429;28;102010;-62
2021/12/16 07:13:55;;;;;;;20.53;13.10;;;;;;;3.10;100.00;98095.94;5010097;28;105613;-62
2021/12/16 07:16:25;;;;;;;20.57;13.30;;;;;;;3.10;100.00;98098.56;5009261;28;105263;-62
2021/12/16 07:18:52;;;;;;;20.17;13.07;;;;;;;3.16;100.00;98102.38;5013242;28;101860;-62
2021/12/16 07:21:19;;;;;;;23.90;14.43;;;;;;;3.18;100.00;98109.06;5008754;28;103839;-62
2021/12/16 07:23:46;;;;;;;21.37;14.80;;;;;;;3.26;100.00;98109.09;5009904;28;101834;-62
2021/12/16 07:26:20;;;;;;;23.20;14.90;;;;;;;3.35;100.00;98112.56;5006111;28;105345;-63
2021/12/16 07:28:48;;;;;;;21.93;13.80;;;;;;;3.30;100.00;98114.84;5002112;28;104946;-62
2021/12/16 07:31:16;;;;;;;26.10;14.97;;;;;;;3.35;100.00;98117.81;5009459;28;101907;-62
2021/12/16 07:33:45;;;;;;;24.50;15.00;;;;;;;3.35;100.00;98115.19;5009604;28;105156;-62
2021/12/16 07:36:18;;;;;;;22.87;14.33;;;;;;;3.38;100.00;98117.50;5008764;28;105718;-62
2021/12/16 07:38:45;;;;;;;23.27;14.40;;;;;;;3.36;100.00;98116.81;5009180;28;101845;-63
2021/12/16 07:41:16;;;;;;;21.03;14.03;;;;;;;3.42;100.00;98121.44;5011947;28;105278;-63
2021/12/16 07:43:55;;;;;;;19.53;13.33;;;;;;;3.44;100.00;98124.72;5006053;28;101999;-62
2021/12/16 07:46:23;;;;;;;22.13;13.17;;;;;;;3.40;100.00;98131.28;5025675;28;105812;-62
2021/12/16 07:48:54;;;;;;;21.13;14.03;;;;;;;3.38;100.00;98128.03;5042102;27;105177;-62
2021/12/16 07:51:21;;;;;;;22.17;14.50;;;;;;;3.41;100.00;98132.94;5009192;28;101853;-63
2021/12/16 07:53:49;;;;;;;19.03;13.03;;;;;;;3.30;100.00;98141.16;5010562;28;102427;-63
2021/12/16 07:56:16;;;;;;;18.03;12.07;;;;;;;3.32;100.00;98145.25;5008697;28;105061;-62
2021/12/16 08:02:11;;;;;;;21.63;13.23;;;;;;;3.35;100.00;98150.19;5007919;28;102489;-62
2021/12/16 08:04:42;;;;;;;22.20;14.23;;;;;;;3.49;100.00;98143.47;5012256;28;105544;-62
2021/12/16 08:07:13;;;;;;;20.13;13.43;;;;;;;3.47;100.00;98143.63;5008607;28;106415;-63
2021/12/16 08:09:40;;;;;;;19.70;12.70;;;;;;;3.40;100.00;98155.78;5009658;28;102888;-62
2021/12/16 08:12:12;;;;;;;19.60;12.83;;;;;;;3.45;100.00;98155.31;5008429;28;101993;-63
2021/12/16 08:14:45;;;;;;;19.30;13.10;;;;;;;3.51;100.00;98152.00;5005293;28;105165;-62
2021/12/16 08:17:13;;;;;;;19.57;13.90;;;;;;;3.56;100.00;98162.88;4991409;28;106194;-62
2021/12/16 08:19:45;;;;;;;18.40;12.53;;;;;;;3.54;100.00;98160.41;4997772;28;102443;-65
2021/12/16 08:22:12;;;;;;;19.63;13.00;;;;;;;3.58;100.00;98160.88;5008046;28;105290;-62
2021/12/16 08:25:08;;;;;;;22.23;15.07;;;;;;;3.59;100.00;98158.09;5008207;28;104970;-61
2021/12/16 08:28:03;;;;;;;18.33;12.87;;;;;;;3.54;100.00;98165.66;5004692;28;101765;-61
2021/12/16 08:30:33;;;;;;;19.10;12.57;;;;;;;3.46;100.00;98162.19;5005224;28;103837;-62
2021/12/16 08:33:05;;;;;;;20.67;14.07;;;;;;;3.44;100.00;98159.72;5008356;28;103086;-63
2021/12/16 08:35:36;;;;;;;18.27;12.87;;;;;;;3.48;100.00;98160.22;5008355;28;105360;-61
2021/12/16 08:38:04;;;;;;;18.93;13.63;;;;;;;3.57;100.00;98162.72;5008052;28;105425;-62
2021/12/16 08:40:31;;;;;;;18.60;13.43;;;;;;;3.65;100.00;98161.91;5008012;28;102279;-62
2021/12/16 08:42:58;;;;;;;17.30;12.83;;;;;;;3.71;100.00;98161.25;5008350;28;103845;-62
2021/12/16 08:45:36;;;;;;;18.50;12.43;;;;;;;3.69;100.00;98158.75;5007953;28;105062;-62
2021/12/16 08:48:05;;;;;;;17.97;12.07;;;;;;;3.57;100.00;98159.25;5007742;28;102117;-63
2021/12/16 08:50:39;;;;;;;20.47;13.43;;;;;;;3.59;100.00;98162.53;5041312;27;105338;-62
2021/12/16 08:53:07;;;;;;;23.67;15.20;;;;;;;3.77;100.00;98156.13;5004076;28;102110;-63
2021/12/16 08:55:50;;;;;;;22.53;14.23;;;;;;;3.75;100.00;98165.16;4997534;28;105260;-63
2021/12/16 08:58:29;;;;;;;23.80;16.33;;;;;;;3.68;100.00;98156.28;4987873;28;105046;-63
2021/12/16 09:00:59;;;;;;;23.07;15.70;;;;;;;3.55;100.00;98156.78;5000346;28;101762;-63
2021/12/16 09:03:28;;;;;;;21.97;15.20;;;;;;;3.58;100.00;98155.63;5004745;28;105721;-63
2021/12/16 09:06:02;;;;;;;21.47;15.03;;;;;;;3.45;100.00;98163.19;4996208;28;105085;-63
2021/12/16 09:08:29;;;;;;;18.20;13.37;;;;;;;3.48;100.00;98165.47;5000492;28;102295;-61
2021/12/16 09:10:56;;;;;;;20.17;14.53;;;;;;;3.39;100.00;98163.84;5007795;28;105233;-61
2021/12/16 09:13:23;;;;;;;22.87;15.00;;;;;;;3.50;100.00;98158.25;4988720;28;101865;-62
2021/12/16 09:16:00;;;;;;;25.20;15.73;;;;;;;3.55;100.00;98164.66;5009213;28;102354;-61
2021/12/16 09:18:29;;;;;;;23.47;15.37;;;;;;;3.66;100.00;98160.91;5007107;28;104406;-61
2021/12/16 09:20:59;;;;;;;22.50;15.10;;;;;;;3.60;100.00;98162.38;5004459;28;101849;-61
2021/12/16 09:23:29;;;;;;;22.63;15.40;;;;;;;3.62;100.00;98163.03;5006964;28;105912;-61
2021/12/16 09:26:00;;;;;;;19.83;14.17;;;;;;;3.49;100.00;98164.53;5007390;28;106205;-62
2021/12/16 09:28:27;;;;;;;24.17;14.53;;;;;;;3.56;100.00;98162.88;5005431;28;102462;-62
2021/12/16 09:30:56;;;;;;;20.30;14.63;;;;;;;3.62;100.00;98160.41;5006876;28;103720;-63
2021/12/16 09:33:25;;;;;;;23.50;15.83;;;;;;;3.76;100.00;98166.84;5012188;28;103023;-62
2021/12/16 09:36:00;;;;;;;23.90;15.60;;;;;;;3.79;100.00;98169.13;5007656;28;104983;-61
2021/12/16 09:38:29;;;;;;;22.77;14.33;;;;;;;3.73;100.00;98165.34;5007078;28;105162;-61
2021/12/16 09:40:58;;;;;;;21.10;14.33;;;;;;;3.93;100.00;98171.09;5007366;28;101841;-61
2021/12/16 09:43:28;;;;;;;19.87;14.50;;;;;;;3.76;100.00;98170.25;5007839;28;105574;-61
2021/12/16 09:46:06;;;;;;;20.93;14.67;;;;;;;3.89;100.00;98169.78;5008203;28;102157;-60
2021/12/16 09:48:35;;;;;;;19.73;13.07;;;;;;;4.02;100.00;98170.09;5007398;28;101740;-61
2021/12/16 09:51:05;;;;;;;21.57;13.33;;;;;;;4.08;100.00;98172.06;5007496;28;103708;-60
2021/12/16 09:53:34;;;;;;;17.50;11.60;;;;;;;3.99;100.00;98175.69;5006708;28;105318;-61
2021/12/16 09:56:09;;;;;;;17.60;12.43;;;;;;;3.94;100.00;98172.75;5011127;28;101903;-61
2021/12/16 09:58:51;;;;;;;14.70;11.37;;;;;;;3.95;100.00;98169.09;5006735;28;105043;-61
2021/12/16 10:01:34;;;;;;;15.27;11.00;;;;;;;3.85;100.00;98169.28;5005368;28;101842;-61
2021/12/16 10:04:05;;;;;;;15.27;10.30;;;;;;;4.07;100.00;98173.03;4976406;28;102873;-62
2021/12/16 10:06:35;;;;;;;16.60;10.83;;;;;;;4.09;100.00;98165.81;4968428;28;105273;-62
2021/12/16 10:09:05;;;;;;;16.27;11.43;;;;;;;4.09;100.00;98171.09;4949717;28;101967;-61
2021/12/16 10:11:34;;;;;;;14.07;10.10;;;;;;;4.14;100.00;98163.50;4949381;28;105269;-61
2021/12/16 10:14:14;;;;;;;14.27;10.00;;;;;;;4.21;100.00;98169.75;4949468;28;104316;-61
2021/12/16 10:19:31;;;;;;;14.47;10.87;;;;;;;4.23;100.00;98157.22;4952685;28;105084;-65
2021/12/16 10:22:18;;;;;;;15.30;11.03;;;;;;;4.12;100.00;98155.78;4949661;28;102082;-66
2021/12/16 10:24:51;;;;;;;13.70;9.90;;;;;;;4.23;100.00;98147.53;4949953;28;105060;-66
2021/12/16 10:27:22;;;;;;;15.13;10.33;;;;;;;4.19;100.00;98164.63;4953107;28;105146;-61
2021/12/16 10:29:53;;;;;;;13.37;10.60;;;;;;;4.44;100.00;98153.06;4983641;28;102334;-65
2021/12/16 10:32:40;;;;;;;13.67;10.40;;;;;;;4.53;100.00;98154.66;4972008;28;105569;-61
2021/12/16 10:35:18;;;;;;;14.13;11.30;;;;;;;4.74;100.00;98154.13;4967835;28;104693;-61
2021/12/16 10:37:51;;;;;;;13.50;10.70;;;;;;;5.16;100.00;98146.63;4969758;28;102073;-61
2021/12/16 10:40:34;;;;;;;12.90;9.53;;;;;;;5.39;100.00;98137.75;4976308;28;105092;-61
2021/12/16 10:43:06;;;;;;;12.13;10.03;;;;;;;5.28;100.00;98151.34;5012523;28;105442;-61
2021/12/16 10:45:39;;;;;;;12.30;9.80;;;;;;;5.20;100.00;98140.88;5006494;28;104473;-61
2021/12/16 10:48:12;;;;;;;10.27;8.97;;;;;;;4.98;100.00;98139.00;5001562;28;105067;-62
2021/12/16 10:51:04;;;;;;;10.33;8.53;;;;;;;5.07;100.00;98137.16;5007448;28;101910;-62
2021/12/16 10:54:12;;;;;;;9.20;8.20;;;;;;;5.04;100.00;98134.84;5005685;28;105695;-61
2021/12/16 10:56:49;;;;;;;11.23;8.57;;;;;;;5.02;100.00;98131.56;5011724;28;102593;-63
2021/12/16 10:59:20;;;;;;;8.20;7.30;;;;;;;4.80;100.00;98137.63;5010723;28;102180;-64
2021/12/16 11:01:57;;;;;;;8.23;6.57;;;;;;;4.73;100.00;98134.00;5010638;28;106265;-63
2021/12/16 11:04:34;;;;;;;6.97;6.20;;;;;;;4.76;100.00;98138.94;5011535;28;104288;-63
2021/12/16 11:07:06;;;;;;;8.37;6.50;;;;;;;5.03;100.00;98130.56;5014188;28;101902;-63
2021/12/16 11:09:44;;;;;;;7.63;6.40;;;;;;;5.14;100.00;98136.25;5007414;28;105514;-63
2021/12/16 11:12:31;;;;;;;6.83;5.70;;;;;;;4.99;100.00;98139.81;5007629;28;101779;-64
2021/12/16 11:15:27;;;;;;;8.33;6.77;;;;;;;4.87;100.00;98142.03;5011554;28;102470;-63
2021/12/16 11:18:00;;;;;;;6.80;6.07;;;;;;;4.79;100.00;98144.69;4994603;28;105687;-63
2021/12/16 11:20:35;;;;;;;8.20;7.00;;;;;;;4.87;100.00;98130.66;5007169;28;103123;-63
2021/12/16 11:23:07;;;;;;;6.90;6.20;;;;;;;5.13;100.00;98139.91;5004533;28;102551;-64
2021/12/16 11:25:44;;;;;;;7.77;6.97;;;;;;;5.39;100.00;98131.66;5006676;28;105779;-63
2021/12/16 11:28:25;;;;;;;7.23;6.10;;;;;;;5.52;100.00;98132.69;4998676;28;101921;-63
2021/12/16 11:30:55;;;;;;;7.37;6.33;;;;;;;5.45;100.00;98128.34;4969698;28;105386;-63
2021/12/16 11:33:33;;;;;;;6.93;6.23;;;;;;;5.53;100.00;98137.00;4967286;28;101997;-64
2021/12/16 11:36:15;;;;;;;6.20;5.27;;;;;;;5.78;100.00;98132.34;4967197;28;105533;-63
2021/12/16 11:38:47;;;;;;;6.80;5.50;;;;;;;5.86;100.00;98124.38;4961642;28;102484;-64
2021/12/16 11:41:24;;;;;;;6.73;5.60;;;;;;;5.82;100.00;98125.72;4969920;28;101853;-64
2021/12/16 11:44:07;;;;;;;5.87;5.33;;;;;;;5.66;100.00;98128.47;4966645;28;104861;-64
2021/12/16 11:46:39;;;;;;;6.90;5.40;;;;;;;5.72;100.00;98123.31;4968439;28;102707;-64
2021/12/16 11:49:10;;;;;;;5.17;4.67;;;;;;;5.86;100.00;98125.22;4970246;28;101775;-64
2021/12/16 11:51:43;;;;;;;5.30;4.80;;;;;;;6.01;100.00;98130.53;4968808;28;107376;-61
2021/12/16 11:54:19;;;;;;;5.50;4.93;;;;;;;6.07;100.00;98135.09;4985687;28;101893;-61
2021/12/16 11:56:49;;;;;;;5.00;4.50;;;;;;;5.91;100.00;98122.88;4969584;28;104156;-61
2021/12/16 11:59:32;;;;;;;4.60;4.10;;;;;;;5.85;100.00;98122.75;4969028;28;105611;-61
2021/12/16 12:02:01;;;;;;;5.13;4.63;;;;;;;5.82;100.00;98128.38;4971328;28;102187;-61
2021/12/16 12:04:33;;;;;;;5.00;4.50;;;;;;;5.94;100.00;98132.25;4970830;28;102249;-60
2021/12/16 12:07:08;;;;;;;4.73;4.33;;;;;;;6.06;100.00;98138.72;4969047;28;105440;-60
2021/12/16 12:09:39;;;;;;;5.70;5.13;;;;;;;6.00;100.00;98128.88;4971321;28;101937;-61
2021/12/16 12:12:07;;;;;;;4.60;4.20;;;;;;;6.12;100.00;98140.66;4950786;28;105235;-61
2021/12/16 12:14:42;;;;;;;5.90;5.13;;;;;;;5.86;100.00;98134.94;4964057;28;105440;-61
2021/12/16 12:17:12;;;;;;;5.87;4.47;;;;;;;5.82;100.00;98133.66;4966548;28;105090;-60
2021/12/16 12:19:45;;;;;;;5.70;5.10;;;;;;;5.50;100.00;98144.44;4967139;28;104404;-61
2021/12/16 12:22:13;;;;;;;5.37;4.80;;;;;;;5.40;100.00;98144.66;4970220;28;101754;-61
2021/12/16 12:25:11;;;;;;;5.77;5.10;;;;;;;5.37;100.00;98146.84;4966712;28;105112;-61
2021/12/16 12:27:59;;;;;;;6.13;5.53;;;;;;;5.31;100.00;98152.81;4949611;28;105708;-61
2021/12/16 12:30:28;;;;;;;5.30;4.80;;;;;;;5.27;100.00;98149.72;5000692;28;101979;-61
2021/12/16 12:32:56;;;;;;;6.93;5.50;;;;;;;5.40;100.00;98144.66;4989812;28;103679;-61
2021/12/16 12:35:40;;;;;;;5.97;5.17;;;;;;;5.35;100.00;98146.19;5005033;28;105180;-61
2021/12/16 12:38:09;;;;;;;6.47;5.70;;;;;;;5.41;100.00;98145.50;4994361;28;101630;-61
2021/12/16 12:40:40;;;;;;;7.80;5.73;;;;;;;5.37;100.00;98139.75;5008670;28;105191;-61
2021/12/16 12:43:10;;;;;;;7.60;6.80;;;;;;;5.44;100.00;98131.94;5009268;28;101845;-61
2021/12/16 12:45:51;;;;;;;7.83;7.03;;;;;;;5.56;100.00;98133.19;5009544;28;104620;-61
2021/12/16 12:48:20;;;;;;;8.03;6.63;;;;;;;5.59;100.00;98135.47;5007988;28;105385;-61
2021/12/16 12:50:50;;;;;;;11.00;7.50;;;;;;;5.57;100.00;98135.63;5009480;28;101986;-61
2021/12/16 12:53:21;;;;;;;12.20;6.70;;;;;;;5.50;100.00;98133.88;5010472;28;102570;-61
2021/12/16 12:55:57;;;;;;;7.57;6.30;;;;;;;5.46;100.00;98128.13;5008607;28;105424;-61
2021/12/16 12:58:29;;;;;;;6.73;6.10;;;;;;;5.31;100.00;98126.44;5008017;28;101981;-62
2021/12/16 13:01:02;;;;;;;7.20;6.00;;;;;;;5.23;100.00;98131.78;5012194;28;104755;-61
2021/12/16 13:03:33;;;;;;;7.23;6.53;;;;;;;5.12;100.00;98125.06;5005520;28;101987;-61
2021/12/16 13:06:14;;;;;;;8.37;6.77;;;;;;;5.12;100.00;98129.53;4989104;28;105391;-62
2021/12/16 13:08:44;;;;;;;6.87;6.17;;;;;;;5.07;100.00;98130.03;4996724;28;105554;-62
2021/12/16 13:11:15;;;;;;;7.23;6.53;;;;;;;5.20;100.00;98122.41;5009227;28;102040;-62
2021/12/16 13:14:03;;;;;;;9.00;7.23;;;;;;;5.34;100.00;98134.81;5008670;28;105409;-62
2021/12/16 13:16:59;;;;;;;8.77;7.50;;;;;;;5.57;100.00;98129.56;5007961;28;105479;-61
2021/12/16 13:28:20;;;;;;;5.80;5.13;;;;;;;7.16;100.00;98121.72;4964387;28;105891;-61
2021/12/16 13:30:57;;;;;;;5.90;5.30;;;;;;;5.91;100.00;98114.09;5008051;28;105555;-61
2021/12/16 13:33:39;;;;;;;6.27;5.37;;;;;;;6.08;100.00;98116.44;5008593;28;101736;-61
2021/12/16 13:36:17;;;;;;;5.97;5.37;;;;;;;6.78;100.00;98114.13;5008657;28;105349;-61
2021/12/16 13:38:47;;;;;;;5.73;5.17;;;;;;;6.41;100.00;98108.97;5007702;28;105428;-61
2021/12/16 13:41:17;;;;;;;7.03;6.23;;;;;;;6.30;100.00;98096.19;5008594;28;101825;-61
2021/12/16 13:43:59;;;;;;;7.20;6.30;;;;;;;6.56;100.00;98088.63;5009821;28;102931;-64
2021/12/16 13:46:38;;;;;;;6.93;5.27;;;;;;;6.48;100.00;98094.84;5012685;28;103067;-73
2021/12/16 13:58:32;;;;;;;6.67;5.97;;;;;;;6.67;100.00;98099.56;4983798;28;106073;-61